sensor_id;sensor_type;location;lat;lon;timestamp;P1;durP1;ratioP1;P2;durP2;ratioP2
13592;SDS011;6867;50.998;4.250;2023-06-10T00:01:14;13.70;;;8.30;;
13592;SDS011;6867;50.998;4.250;2023-06-10T00:03:40;9.75;;;8.40;;
13592;SDS011;6867;50.998;4.250;2023-06-10T00:06:08;10.52;;;8.15;;
13592;SDS011;6867;50.998;4.250;2023-06-10T00:08:35;11.23;;;9.13;;
13592;SDS011;6867;50.998;4.250;2023-06-10T00:11:04;9.60;;;8.73;;
13592;SDS011;6867;50.998;4.250;2023-06-10T00:13:30;11.10;;;8.55;;
13592;SDS011;6867;50.998;4.250;2023-06-10T00:15:57;9.77;;;8.82;;
13592;SDS011;6867;50.998;4.250;2023-06-10T00:18:23;10.27;;;8.73;;
13592;SDS011;6867;50.998;4.250;2023-06-10T00:20:52;14.10;;;8.90;;
13592;SDS011;6867;50.998;4.250;2023-06-10T00:23:20;10.30;;;9.10;;
13592;SDS011;6867;50.998;4.250;2023-06-10T00:25:47;9.63;;;8.68;;
13592;SDS011;6867;50.998;4.250;2023-06-10T00:28:15;9.70;;;8.70;;
13592;SDS011;6867;50.998;4.250;2023-06-10T00:30:42;10.20;;;8.70;;
13592;SDS011;6867;50.998;4.250;2023-06-10T00:33:08;9.73;;;8.23;;
13592;SDS011;6867;50.998;4.250;2023-06-10T00:35:35;12.45;;;9.07;;
13592;SDS011;6867;50.998;4.250;2023-06-10T00:38:02;12.65;;;9.18;;
13592;SDS011;6867;50.998;4.250;2023-06-10T00:40:28;10.30;;;8.88;;
13592;SDS011;6867;50.998;4.250;2023-06-10T00:42:55;9.55;;;8.60;;
13592;SDS011;6867;50.998;4.250;2023-06-10T00:45:23;10.60;;;9.32;;
13592;SDS011;6867;50.998;4.250;2023-06-10T00:47:50;11.95;;;9.10;;
13592;SDS011;6867;50.998;4.250;2023-06-10T00:50:17;15.30;;;8.73;;
13592;SDS011;6867;50.998;4.250;2023-06-10T00:52:43;9.90;;;8.95;;
13592;SDS011;6867;50.998;4.250;2023-06-10T00:55:13;10.02;;;9.05;;
13592;SDS011;6867;50.998;4.250;2023-06-10T00:57:42;11.82;;;9.45;;
13592;SDS011;6867;50.998;4.250;2023-06-10T01:00:10;11.35;;;8.70;;
13592;SDS011;6867;50.998;4.250;2023-06-10T01:02:38;12.52;;;9.48;;
13592;SDS011;6867;50.998;4.250;2023-06-10T01:05:05;10.23;;;9.23;;
13592;SDS011;6867;50.998;4.250;2023-06-10T01:07:34;10.18;;;9.05;;
13592;SDS011;6867;50.998;4.250;2023-06-10T01:10:13;10.10;;;8.60;;
13592;SDS011;6867;50.998;4.250;2023-06-10T01:12:45;10.60;;;9.52;;
13592;SDS011;6867;50.998;4.250;2023-06-10T01:15:18;9.70;;;8.90;;
13592;SDS011;6867;50.998;4.250;2023-06-10T01:17:55;10.10;;;9.18;;
13592;SDS011;6867;50.998;4.250;2023-06-10T01:20:23;9.88;;;8.88;;
13592;SDS011;6867;50.998;4.250;2023-06-10T01:22:53;12.45;;;8.70;;
13592;SDS011;6867;50.998;4.250;2023-06-10T01:25:20;9.90;;;8.98;;
13592;SDS011;6867;50.998;4.250;2023-06-10T01:27:52;11.68;;;9.43;;
13592;SDS011;6867;50.998;4.250;2023-06-10T01:30:22;10.25;;;9.25;;
13592;SDS011;6867;50.998;4.250;2023-06-10T01:32:55;10.25;;;9.25;;
13592;SDS011;6867;50.998;4.250;2023-06-10T01:35:25;13.73;;;10.45;;
13592;SDS011;6867;50.998;4.250;2023-06-10T01:37:57;10.93;;;9.20;;
13592;SDS011;6867;50.998;4.250;2023-06-10T01:40:26;11.13;;;10.02;;
13592;SDS011;6867;50.998;4.250;2023-06-10T01:42:54;10.18;;;9.13;;
13592;SDS011;6867;50.998;4.250;2023-06-10T01:45:20;10.45;;;9.45;;
13592;SDS011;6867;50.998;4.250;2023-06-10T01:47:47;10.13;;;9.07;;
13592;SDS011;6867;50.998;4.250;2023-06-10T01:50:14;10.95;;;9.60;;
13592;SDS011;6867;50.998;4.250;2023-06-10T01:52:41;10.38;;;9.38;;
13592;SDS011;6867;50.998;4.250;2023-06-10T01:55:09;10.55;;;9.52;;
13592;SDS011;6867;50.998;4.250;2023-06-10T01:57:36;10.55;;;9.55;;
13592;SDS011;6867;50.998;4.250;2023-06-10T02:00:03;13.10;;;10.13;;
13592;SDS011;6867;50.998;4.250;2023-06-10T02:02:30;16.30;;;9.93;;
13592;SDS011;6867;50.998;4.250;2023-06-10T02:04:57;10.98;;;9.88;;
13592;SDS011;6867;50.998;4.250;2023-06-10T02:07:23;11.98;;;9.05;;
13592;SDS011;6867;50.998;4.250;2023-06-10T02:09:50;12.55;;;10.60;;
13592;SDS011;6867;50.998;4.250;2023-06-10T02:12:18;12.90;;;10.93;;
13592;SDS011;6867;50.998;4.250;2023-06-10T02:14:45;12.25;;;9.60;;
13592;SDS011;6867;50.998;4.250;2023-06-10T02:17:11;10.40;;;9.32;;
13592;SDS011;6867;50.998;4.250;2023-06-10T02:19:39;13.85;;;9.75;;
13592;SDS011;6867;50.998;4.250;2023-06-10T02:22:07;10.65;;;9.63;;
13592;SDS011;6867;50.998;4.250;2023-06-10T02:24:35;13.38;;;9.55;;
13592;SDS011;6867;50.998;4.250;2023-06-10T02:27:03;11.43;;;9.90;;
13592;SDS011;6867;50.998;4.250;2023-06-10T02:29:33;12.18;;;10.45;;
13592;SDS011;6867;50.998;4.250;2023-06-10T02:32:00;12.00;;;10.32;;
13592;SDS011;6867;50.998;4.250;2023-06-10T02:34:28;11.77;;;10.57;;
13592;SDS011;6867;50.998;4.250;2023-06-10T02:36:54;11.88;;;10.68;;
13592;SDS011;6867;50.998;4.250;2023-06-10T02:39:21;14.60;;;10.23;;
13592;SDS011;6867;50.998;4.250;2023-06-10T02:41:48;11.25;;;10.15;;
13592;SDS011;6867;50.998;4.250;2023-06-10T02:44:14;12.48;;;11.10;;
13592;SDS011;6867;50.998;4.250;2023-06-10T02:46:42;12.70;;;10.52;;
13592;SDS011;6867;50.998;4.250;2023-06-10T02:49:09;12.05;;;10.73;;
13592;SDS011;6867;50.998;4.250;2023-06-10T02:51:36;12.73;;;10.90;;
13592;SDS011;6867;50.998;4.250;2023-06-10T02:54:03;12.80;;;11.07;;
13592;SDS011;6867;50.998;4.250;2023-06-10T02:56:29;13.60;;;10.95;;
13592;SDS011;6867;50.998;4.250;2023-06-10T02:58:56;14.93;;;10.55;;
13592;SDS011;6867;50.998;4.250;2023-06-10T03:01:23;14.23;;;11.93;;
13592;SDS011;6867;50.998;4.250;2023-06-10T03:03:51;13.45;;;11.77;;
13592;SDS011;6867;50.998;4.250;2023-06-10T03:06:18;12.45;;;11.15;;
13592;SDS011;6867;50.998;4.250;2023-06-10T03:08:44;12.35;;;11.18;;
13592;SDS011;6867;50.998;4.250;2023-06-10T03:11:11;12.43;;;11.15;;
13592;SDS011;6867;50.998;4.250;2023-06-10T03:13:38;13.05;;;11.75;;
13592;SDS011;6867;50.998;4.250;2023-06-10T03:16:05;12.82;;;11.48;;
13592;SDS011;6867;50.998;4.250;2023-06-10T03:18:32;12.65;;;11.30;;
13592;SDS011;6867;50.998;4.250;2023-06-10T03:21:01;14.70;;;12.50;;
13592;SDS011;6867;50.998;4.250;2023-06-10T03:23:28;13.18;;;11.35;;
13592;SDS011;6867;50.998;4.250;2023-06-10T03:25:54;14.90;;;11.60;;
13592;SDS011;6867;50.998;4.250;2023-06-10T03:28:21;11.95;;;10.75;;
13592;SDS011;6867;50.998;4.250;2023-06-10T03:30:48;13.40;;;12.10;;
13592;SDS011;6867;50.998;4.250;2023-06-10T03:33:14;15.07;;;12.35;;
13592;SDS011;6867;50.998;4.250;2023-06-10T03:35:41;12.23;;;10.93;;
13592;SDS011;6867;50.998;4.250;2023-06-10T03:38:09;12.88;;;11.68;;
13592;SDS011;6867;50.998;4.250;2023-06-10T03:40:36;16.35;;;12.00;;
13592;SDS011;6867;50.998;4.250;2023-06-10T03:43:02;14.30;;;12.18;;
13592;SDS011;6867;50.998;4.250;2023-06-10T03:45:29;12.65;;;11.27;;
13592;SDS011;6867;50.998;4.250;2023-06-10T03:47:57;14.85;;;12.40;;
13592;SDS011;6867;50.998;4.250;2023-06-10T03:50:24;13.45;;;12.10;;
13592;SDS011;6867;50.998;4.250;2023-06-10T03:52:51;13.77;;;12.27;;
13592;SDS011;6867;50.998;4.250;2023-06-10T03:55:19;13.52;;;11.82;;
13592;SDS011;6867;50.998;4.250;2023-06-10T03:57:47;14.15;;;12.68;;
13592;SDS011;6867;50.998;4.250;2023-06-10T04:00:14;13.68;;;12.27;;
13592;SDS011;6867;50.998;4.250;2023-06-10T04:02:42;13.90;;;12.50;;
13592;SDS011;6867;50.998;4.250;2023-06-10T04:05:13;12.98;;;11.73;;
13592;SDS011;6867;50.998;4.250;2023-06-10T04:07:40;14.20;;;11.73;;
13592;SDS011;6867;50.998;4.250;2023-06-10T04:10:08;13.55;;;12.18;;
13592;SDS011;6867;50.998;4.250;2023-06-10T04:12:36;13.20;;;11.88;;
13592;SDS011;6867;50.998;4.250;2023-06-10T04:15:04;14.63;;;12.27;;
13592;SDS011;6867;50.998;4.250;2023-06-10T04:17:32;18.63;;;12.65;;
13592;SDS011;6867;50.998;4.250;2023-06-10T04:19:58;14.23;;;12.75;;
13592;SDS011;6867;50.998;4.250;2023-06-10T04:22:25;13.15;;;11.88;;
13592;SDS011;6867;50.998;4.250;2023-06-10T04:24:52;13.63;;;11.68;;
13592;SDS011;6867;50.998;4.250;2023-06-10T04:27:19;16.45;;;12.32;;
13592;SDS011;6867;50.998;4.250;2023-06-10T04:29:47;13.35;;;11.98;;
13592;SDS011;6867;50.998;4.250;2023-06-10T04:32:13;14.75;;;12.25;;
13592;SDS011;6867;50.998;4.250;2023-06-10T04:34:40;16.48;;;12.60;;
13592;SDS011;6867;50.998;4.250;2023-06-10T04:37:07;14.07;;;12.20;;
13592;SDS011;6867;50.998;4.250;2023-06-10T04:39:34;13.38;;;11.95;;
13592;SDS011;6867;50.998;4.250;2023-06-10T04:42:00;16.33;;;12.63;;
13592;SDS011;6867;50.998;4.250;2023-06-10T04:44:27;13.05;;;11.65;;
13592;SDS011;6867;50.998;4.250;2023-06-10T04:46:57;15.65;;;13.07;;
13592;SDS011;6867;50.998;4.250;2023-06-10T04:49:23;16.30;;;12.13;;
13592;SDS011;6867;50.998;4.250;2023-06-10T04:51:50;15.02;;;12.43;;
13592;SDS011;6867;50.998;4.250;2023-06-10T04:54:17;14.25;;;12.73;;
13592;SDS011;6867;50.998;4.250;2023-06-10T04:56:44;14.93;;;11.88;;
13592;SDS011;6867;50.998;4.250;2023-06-10T04:59:10;14.43;;;12.20;;
13592;SDS011;6867;50.998;4.250;2023-06-10T05:01:37;17.63;;;12.23;;
13592;SDS011;6867;50.998;4.250;2023-06-10T05:04:05;14.40;;;12.85;;
13592;SDS011;6867;50.998;4.250;2023-06-10T05:06:32;20.77;;;12.10;;
13592;SDS011;6867;50.998;4.250;2023-06-10T05:08:58;14.05;;;12.48;;
13592;SDS011;6867;50.998;4.250;2023-06-10T05:11:25;14.13;;;12.07;;
13592;SDS011;6867;50.998;4.250;2023-06-10T05:13:51;12.98;;;11.68;;
13592;SDS011;6867;50.998;4.250;2023-06-10T05:16:18;13.48;;;11.35;;
13592;SDS011;6867;50.998;4.250;2023-06-10T05:18:45;14.70;;;12.68;;
13592;SDS011;6867;50.998;4.250;2023-06-10T05:21:13;13.68;;;11.77;;
13592;SDS011;6867;50.998;4.250;2023-06-10T05:23:40;16.83;;;11.25;;
13592;SDS011;6867;50.998;4.250;2023-06-10T05:26:07;12.73;;;11.48;;
13592;SDS011;6867;50.998;4.250;2023-06-10T05:28:34;13.52;;;11.65;;
13592;SDS011;6867;50.998;4.250;2023-06-10T05:31:00;15.35;;;11.65;;
13592;SDS011;6867;50.998;4.250;2023-06-10T05:33:28;13.57;;;11.95;;
13592;SDS011;6867;50.998;4.250;2023-06-10T05:35:54;13.25;;;11.45;;
13592;SDS011;6867;50.998;4.250;2023-06-10T05:38:22;13.23;;;11.82;;
13592;SDS011;6867;50.998;4.250;2023-06-10T05:40:49;13.52;;;11.50;;
13592;SDS011;6867;50.998;4.250;2023-06-10T05:43:15;13.00;;;11.63;;
13592;SDS011;6867;50.998;4.250;2023-06-10T05:45:42;14.18;;;11.07;;
13592;SDS011;6867;50.998;4.250;2023-06-10T05:48:09;12.27;;;10.57;;
13592;SDS011;6867;50.998;4.250;2023-06-10T05:50:36;13.00;;;11.70;;
13592;SDS011;6867;50.998;4.250;2023-06-10T05:53:05;13.27;;;10.93;;
13592;SDS011;6867;50.998;4.250;2023-06-10T05:55:34;15.68;;;11.25;;
13592;SDS011;6867;50.998;4.250;2023-06-10T05:58:01;14.55;;;11.23;;
13592;SDS011;6867;50.998;4.250;2023-06-10T06:00:28;12.88;;;11.57;;
13592;SDS011;6867;50.998;4.250;2023-06-10T06:02:55;11.60;;;10.50;;
13592;SDS011;6867;50.998;4.250;2023-06-10T06:05:22;13.23;;;10.85;;
13592;SDS011;6867;50.998;4.250;2023-06-10T06:07:49;11.52;;;10.20;;
13592;SDS011;6867;50.998;4.250;2023-06-10T06:10:16;14.27;;;10.65;;
13592;SDS011;6867;50.998;4.250;2023-06-10T06:12:44;12.45;;;10.68;;
13592;SDS011;6867;50.998;4.250;2023-06-10T06:15:11;14.57;;;11.05;;
13592;SDS011;6867;50.998;4.250;2023-06-10T06:17:38;13.45;;;10.90;;
13592;SDS011;6867;50.998;4.250;2023-06-10T06:20:05;13.55;;;10.55;;
13592;SDS011;6867;50.998;4.250;2023-06-10T06:22:33;13.05;;;10.88;;
13592;SDS011;6867;50.998;4.250;2023-06-10T06:24:59;15.88;;;10.93;;
13592;SDS011;6867;50.998;4.250;2023-06-10T06:27:26;12.50;;;11.13;;
13592;SDS011;6867;50.998;4.250;2023-06-10T06:29:54;11.82;;;10.63;;
13592;SDS011;6867;50.998;4.250;2023-06-10T06:32:21;11.55;;;10.02;;
13592;SDS011;6867;50.998;4.250;2023-06-10T06:34:47;11.02;;;9.93;;
13592;SDS011;6867;50.998;4.250;2023-06-10T06:37:19;11.88;;;10.68;;
13592;SDS011;6867;50.998;4.250;2023-06-10T06:39:46;12.00;;;10.43;;
13592;SDS011;6867;50.998;4.250;2023-06-10T06:42:12;12.77;;;10.38;;
13592;SDS011;6867;50.998;4.250;2023-06-10T06:44:39;11.32;;;10.20;;
13592;SDS011;6867;50.998;4.250;2023-06-10T06:47:07;12.13;;;10.80;;
13592;SDS011;6867;50.998;4.250;2023-06-10T06:49:34;12.18;;;10.98;;
13592;SDS011;6867;50.998;4.250;2023-06-10T06:52:02;11.73;;;10.63;;
13592;SDS011;6867;50.998;4.250;2023-06-10T06:54:28;11.70;;;10.50;;
13592;SDS011;6867;50.998;4.250;2023-06-10T06:56:55;11.98;;;10.65;;
13592;SDS011;6867;50.998;4.250;2023-06-10T06:59:22;14.95;;;10.43;;
13592;SDS011;6867;50.998;4.250;2023-06-10T07:01:50;11.55;;;10.45;;
13592;SDS011;6867;50.998;4.250;2023-06-10T07:04:20;11.77;;;10.68;;
13592;SDS011;6867;50.998;4.250;2023-06-10T07:06:47;11.43;;;10.02;;
13592;SDS011;6867;50.998;4.250;2023-06-10T07:09:14;11.77;;;10.48;;
13592;SDS011;6867;50.998;4.250;2023-06-10T07:11:41;11.77;;;10.13;;
13592;SDS011;6867;50.998;4.250;2023-06-10T07:14:07;11.73;;;10.00;;
13592;SDS011;6867;50.998;4.250;2023-06-10T07:16:34;11.43;;;10.38;;
13592;SDS011;6867;50.998;4.250;2023-06-10T07:19:01;12.52;;;10.30;;
13592;SDS011;6867;50.998;4.250;2023-06-10T07:21:29;11.15;;;9.95;;
13592;SDS011;6867;50.998;4.250;2023-06-10T07:23:57;13.45;;;9.38;;
13592;SDS011;6867;50.998;4.250;2023-06-10T07:26:24;11.23;;;10.13;;
13592;SDS011;6867;50.998;4.250;2023-06-10T07:28:51;12.43;;;9.55;;
13592;SDS011;6867;50.998;4.250;2023-06-10T07:31:18;17.17;;;9.65;;
13592;SDS011;6867;50.998;4.250;2023-06-10T07:33:44;11.13;;;9.77;;
13592;SDS011;6867;50.998;4.250;2023-06-10T07:36:12;9.80;;;8.90;;
13592;SDS011;6867;50.998;4.250;2023-06-10T07:38:40;9.57;;;8.48;;
13592;SDS011;6867;50.998;4.250;2023-06-10T07:41:07;10.02;;;9.02;;
13592;SDS011;6867;50.998;4.250;2023-06-10T07:43:34;12.23;;;8.93;;
13592;SDS011;6867;50.998;4.250;2023-06-10T07:46:01;8.73;;;7.93;;
13592;SDS011;6867;50.998;4.250;2023-06-10T07:48:27;12.10;;;9.05;;
13592;SDS011;6867;50.998;4.250;2023-06-10T07:50:54;9.18;;;8.27;;
13592;SDS011;6867;50.998;4.250;2023-06-10T07:53:20;9.20;;;8.32;;
13592;SDS011;6867;50.998;4.250;2023-06-10T07:55:49;9.38;;;8.23;;
13592;SDS011;6867;50.998;4.250;2023-06-10T07:58:15;9.27;;;8.00;;
13592;SDS011;6867;50.998;4.250;2023-06-10T08:00:42;10.50;;;8.32;;
13592;SDS011;6867;50.998;4.250;2023-06-10T08:03:08;9.20;;;8.40;;
13592;SDS011;6867;50.998;4.250;2023-06-10T08:05:35;10.90;;;8.70;;
13592;SDS011;6867;50.998;4.250;2023-06-10T08:08:02;9.75;;;7.78;;
13592;SDS011;6867;50.998;4.250;2023-06-10T08:10:29;8.70;;;7.90;;
13592;SDS011;6867;50.998;4.250;2023-06-10T08:12:57;8.63;;;7.72;;
13592;SDS011;6867;50.998;4.250;2023-06-10T08:15:24;8.43;;;7.50;;
13592;SDS011;6867;50.998;4.250;2023-06-10T08:17:50;10.43;;;8.02;;
13592;SDS011;6867;50.998;4.250;2023-06-10T08:20:17;8.20;;;7.50;;
13592;SDS011;6867;50.998;4.250;2023-06-10T08:22:44;9.02;;;7.43;;
13592;SDS011;6867;50.998;4.250;2023-06-10T08:25:11;9.82;;;7.85;;
13592;SDS011;6867;50.998;4.250;2023-06-10T08:27:37;9.52;;;7.78;;
13592;SDS011;6867;50.998;4.250;2023-06-10T08:30:06;8.48;;;7.55;;
13592;SDS011;6867;50.998;4.250;2023-06-10T08:32:35;8.57;;;7.65;;
13592;SDS011;6867;50.998;4.250;2023-06-10T08:35:02;8.57;;;7.72;;
13592;SDS011;6867;50.998;4.250;2023-06-10T08:37:29;8.77;;;7.60;;
13592;SDS011;6867;50.998;4.250;2023-06-10T08:39:56;8.18;;;7.00;;
13592;SDS011;6867;50.998;4.250;2023-06-10T08:42:24;8.93;;;7.20;;
13592;SDS011;6867;50.998;4.250;2023-06-10T08:44:55;7.78;;;6.57;;
13592;SDS011;6867;50.998;4.250;2023-06-10T08:47:25;9.60;;;7.03;;
13592;SDS011;6867;50.998;4.250;2023-06-10T08:49:56;7.78;;;7.00;;
13592;SDS011;6867;50.998;4.250;2023-06-10T08:52:29;9.10;;;6.93;;
13592;SDS011;6867;50.998;4.250;2023-06-10T08:55:03;7.55;;;6.85;;
13592;SDS011;6867;50.998;4.250;2023-06-10T08:57:31;7.38;;;6.75;;
13592;SDS011;6867;50.998;4.250;2023-06-10T08:59:57;8.40;;;6.43;;
13592;SDS011;6867;50.998;4.250;2023-06-10T09:02:26;8.18;;;6.63;;
13592;SDS011;6867;50.998;4.250;2023-06-10T09:04:53;7.18;;;6.43;;
13592;SDS011;6867;50.998;4.250;2023-06-10T09:07:22;7.63;;;6.35;;
13592;SDS011;6867;50.998;4.250;2023-06-10T09:09:49;6.32;;;5.72;;
13592;SDS011;6867;50.998;4.250;2023-06-10T09:12:18;7.18;;;6.47;;
13592;SDS011;6867;50.998;4.250;2023-06-10T09:14:45;9.07;;;7.10;;
13592;SDS011;6867;50.998;4.250;2023-06-10T09:17:12;7.05;;;6.40;;
13592;SDS011;6867;50.998;4.250;2023-06-10T09:19:40;7.07;;;6.47;;
13592;SDS011;6867;50.998;4.250;2023-06-10T09:22:08;6.50;;;5.90;;
13592;SDS011;6867;50.998;4.250;2023-06-10T09:24:35;6.53;;;5.53;;
13592;SDS011;6867;50.998;4.250;2023-06-10T09:27:02;6.72;;;5.97;;
13592;SDS011;6867;50.998;4.250;2023-06-10T09:29:30;7.28;;;5.72;;
13592;SDS011;6867;50.998;4.250;2023-06-10T09:31:56;8.35;;;6.03;;
13592;SDS011;6867;50.998;4.250;2023-06-10T09:34:24;6.05;;;5.55;;
13592;SDS011;6867;50.998;4.250;2023-06-10T09:36:53;8.82;;;5.35;;
13592;SDS011;6867;50.998;4.250;2023-06-10T09:39:20;8.10;;;5.72;;
13592;SDS011;6867;50.998;4.250;2023-06-10T09:41:47;7.55;;;5.45;;
13592;SDS011;6867;50.998;4.250;2023-06-10T09:44:14;8.73;;;6.25;;
13592;SDS011;6867;50.998;4.250;2023-06-10T09:46:42;8.38;;;5.85;;
13592;SDS011;6867;50.998;4.250;2023-06-10T09:49:11;8.10;;;5.78;;
13592;SDS011;6867;50.998;4.250;2023-06-10T09:51:38;6.30;;;5.40;;
13592;SDS011;6867;50.998;4.250;2023-06-10T09:54:16;6.93;;;5.45;;
13592;SDS011;6867;50.998;4.250;2023-06-10T09:56:43;9.85;;;5.70;;
13592;SDS011;6867;50.998;4.250;2023-06-10T09:59:13;6.53;;;5.78;;
13592;SDS011;6867;50.998;4.250;2023-06-10T10:01:40;7.20;;;6.50;;
13592;SDS011;6867;50.998;4.250;2023-06-10T10:04:06;9.38;;;6.05;;
13592;SDS011;6867;50.998;4.250;2023-06-10T10:06:33;6.90;;;5.68;;
13592;SDS011;6867;50.998;4.250;2023-06-10T10:09:01;9.15;;;6.07;;
13592;SDS011;6867;50.998;4.250;2023-06-10T10:11:30;5.55;;;5.05;;
13592;SDS011;6867;50.998;4.250;2023-06-10T10:13:59;8.20;;;6.20;;
13592;SDS011;6867;50.998;4.250;2023-06-10T10:16:32;8.45;;;5.88;;
13592;SDS011;6867;50.998;4.250;2023-06-10T10:19:04;6.55;;;5.95;;
13592;SDS011;6867;50.998;4.250;2023-06-10T10:21:38;8.70;;;6.20;;
13592;SDS011;6867;50.998;4.250;2023-06-10T10:24:12;6.70;;;6.10;;
13592;SDS011;6867;50.998;4.250;2023-06-10T10:26:43;9.45;;;6.15;;
13592;SDS011;6867;50.998;4.250;2023-06-10T10:29:14;7.57;;;6.35;;
13592;SDS011;6867;50.998;4.250;2023-06-10T10:31:46;8.32;;;6.40;;
13592;SDS011;6867;50.998;4.250;2023-06-10T10:34:16;7.30;;;6.07;;
13592;SDS011;6867;50.998;4.250;2023-06-10T10:36:47;6.57;;;5.90;;
13592;SDS011;6867;50.998;4.250;2023-06-10T10:39:15;10.40;;;6.47;;
13592;SDS011;6867;50.998;4.250;2023-06-10T10:41:43;7.07;;;6.40;;
13592;SDS011;6867;50.998;4.250;2023-06-10T10:44:11;6.55;;;5.95;;
13592;SDS011;6867;50.998;4.250;2023-06-10T10:46:42;7.00;;;6.30;;
13592;SDS011;6867;50.998;4.250;2023-06-10T10:49:09;7.32;;;5.88;;
13592;SDS011;6867;50.998;4.250;2023-06-10T10:51:38;6.75;;;6.13;;
13592;SDS011;6867;50.998;4.250;2023-06-10T10:54:21;8.85;;;6.05;;
13592;SDS011;6867;50.998;4.250;2023-06-10T10:57:11;6.88;;;5.85;;
13592;SDS011;6867;50.998;4.250;2023-06-10T10:59:52;7.82;;;6.50;;
13592;SDS011;6867;50.998;4.250;2023-06-10T11:02:34;8.95;;;5.80;;
13592;SDS011;6867;50.998;4.250;2023-06-10T11:05:03;7.68;;;6.18;;
13592;SDS011;6867;50.998;4.250;2023-06-10T11:07:31;8.07;;;6.07;;
13592;SDS011;6867;50.998;4.250;2023-06-10T11:09:59;7.47;;;6.38;;
13592;SDS011;6867;50.998;4.250;2023-06-10T11:12:35;7.50;;;6.63;;
13592;SDS011;6867;50.998;4.250;2023-06-10T11:15:17;6.75;;;6.13;;
13592;SDS011;6867;50.998;4.250;2023-06-10T11:20:53;9.32;;;5.97;;
13592;SDS011;6867;50.998;4.250;2023-06-10T11:23:25;6.97;;;5.88;;
13592;SDS011;6867;50.998;4.250;2023-06-10T11:26:17;10.75;;;6.15;;
13592;SDS011;6867;50.998;4.250;2023-06-10T11:29:10;11.35;;;6.25;;
13592;SDS011;6867;50.998;4.250;2023-06-10T11:31:46;7.85;;;5.53;;
13592;SDS011;6867;50.998;4.250;2023-06-10T11:34:20;6.70;;;6.03;;
13592;SDS011;6867;50.998;4.250;2023-06-10T11:36:49;8.88;;;6.18;;
13592;SDS011;6867;50.998;4.250;2023-06-10T11:39:17;10.88;;;6.47;;
13592;SDS011;6867;50.998;4.250;2023-06-10T11:41:46;8.07;;;6.47;;
13592;SDS011;6867;50.998;4.250;2023-06-10T11:44:14;6.43;;;5.82;;
13592;SDS011;6867;50.998;4.250;2023-06-10T11:46:41;9.27;;;6.70;;
13592;SDS011;6867;50.998;4.250;2023-06-10T11:49:08;7.03;;;5.97;;
13592;SDS011;6867;50.998;4.250;2023-06-10T11:51:35;10.48;;;6.03;;
13592;SDS011;6867;50.998;4.250;2023-06-10T11:54:04;7.20;;;6.53;;
13592;SDS011;6867;50.998;4.250;2023-06-10T11:56:31;11.13;;;6.60;;
13592;SDS011;6867;50.998;4.250;2023-06-10T11:58:58;6.50;;;5.85;;
13592;SDS011;6867;50.998;4.250;2023-06-10T12:01:31;9.52;;;6.03;;
13592;SDS011;6867;50.998;4.250;2023-06-10T12:03:59;8.27;;;6.38;;
13592;SDS011;6867;50.998;4.250;2023-06-10T12:06:27;8.75;;;6.53;;
13592;SDS011;6867;50.998;4.250;2023-06-10T12:09:03;7.43;;;6.57;;
13592;SDS011;6867;50.998;4.250;2023-06-10T12:11:30;6.97;;;6.05;;
13592;SDS011;6867;50.998;4.250;2023-06-10T12:13:57;7.85;;;6.13;;
13592;SDS011;6867;50.998;4.250;2023-06-10T12:16:24;12.77;;;6.68;;
13592;SDS011;6867;50.998;4.250;2023-06-10T12:19:00;10.93;;;6.28;;
13592;SDS011;6867;50.998;4.250;2023-06-10T12:21:28;6.63;;;5.97;;
13592;SDS011;6867;50.998;4.250;2023-06-10T12:24:07;6.72;;;6.13;;
13592;SDS011;6867;50.998;4.250;2023-06-10T12:26:35;7.43;;;6.20;;
13592;SDS011;6867;50.998;4.250;2023-06-10T12:29:15;8.85;;;6.90;;
13592;SDS011;6867;50.998;4.250;2023-06-10T12:31:54;6.97;;;6.38;;
13592;SDS011;6867;50.998;4.250;2023-06-10T12:34:33;7.82;;;6.30;;
13592;SDS011;6867;50.998;4.250;2023-06-10T12:37:02;6.88;;;6.25;;
13592;SDS011;6867;50.998;4.250;2023-06-10T12:39:30;6.97;;;6.28;;
13592;SDS011;6867;50.998;4.250;2023-06-10T12:41:57;9.27;;;6.32;;
13592;SDS011;6867;50.998;4.250;2023-06-10T12:44:31;8.20;;;5.63;;
13592;SDS011;6867;50.998;4.250;2023-06-10T12:46:59;6.60;;;6.00;;
13592;SDS011;6867;50.998;4.250;2023-06-10T12:49:26;7.07;;;6.35;;
13592;SDS011;6867;50.998;4.250;2023-06-10T12:51:54;7.70;;;6.40;;
13592;SDS011;6867;50.998;4.250;2023-06-10T12:54:21;7.65;;;6.80;;
13592;SDS011;6867;50.998;4.250;2023-06-10T12:56:48;6.80;;;6.20;;
13592;SDS011;6867;50.998;4.250;2023-06-10T12:59:15;7.32;;;6.25;;
13592;SDS011;6867;50.998;4.250;2023-06-10T13:01:42;6.88;;;6.18;;
13592;SDS011;6867;50.998;4.250;2023-06-10T13:04:09;7.68;;;6.07;;
13592;SDS011;6867;50.998;4.250;2023-06-10T13:06:36;8.27;;;5.82;;
13592;SDS011;6867;50.998;4.250;2023-06-10T13:09:09;9.05;;;6.45;;
13592;SDS011;6867;50.998;4.250;2023-06-10T13:11:35;7.60;;;6.00;;
13592;SDS011;6867;50.998;4.250;2023-06-10T13:14:03;8.45;;;6.40;;
13592;SDS011;6867;50.998;4.250;2023-06-10T13:16:31;6.45;;;5.85;;
13592;SDS011;6867;50.998;4.250;2023-06-10T13:18:58;6.55;;;5.93;;
13592;SDS011;6867;50.998;4.250;2023-06-10T13:21:27;6.57;;;5.75;;
13592;SDS011;6867;50.998;4.250;2023-06-10T13:23:54;8.50;;;6.13;;
13592;SDS011;6867;50.998;4.250;2023-06-10T13:26:22;8.10;;;6.18;;
13592;SDS011;6867;50.998;4.250;2023-06-10T13:28:49;7.47;;;5.55;;
13592;SDS011;6867;50.998;4.250;2023-06-10T13:31:15;6.47;;;5.80;;
13592;SDS011;6867;50.998;4.250;2023-06-10T13:33:42;7.10;;;5.68;;
13592;SDS011;6867;50.998;4.250;2023-06-10T13:36:09;13.55;;;5.95;;
13592;SDS011;6867;50.998;4.250;2023-06-10T13:38:37;8.55;;;5.45;;
13592;SDS011;6867;50.998;4.250;2023-06-10T13:41:04;8.75;;;6.00;;
13592;SDS011;6867;50.998;4.250;2023-06-10T13:43:32;8.38;;;5.75;;
13592;SDS011;6867;50.998;4.250;2023-06-10T13:45:59;7.63;;;5.82;;
13592;SDS011;6867;50.998;4.250;2023-06-10T13:48:25;10.75;;;6.00;;
13592;SDS011;6867;50.998;4.250;2023-06-10T13:50:52;8.65;;;5.93;;
13592;SDS011;6867;50.998;4.250;2023-06-10T13:53:19;12.73;;;6.18;;
13592;SDS011;6867;50.998;4.250;2023-06-10T13:55:45;6.18;;;5.57;;
13592;SDS011;6867;50.998;4.250;2023-06-10T13:58:12;6.03;;;5.53;;
13592;SDS011;6867;50.998;4.250;2023-06-10T14:00:40;8.27;;;5.97;;
13592;SDS011;6867;50.998;4.250;2023-06-10T14:03:07;10.10;;;6.10;;
13592;SDS011;6867;50.998;4.250;2023-06-10T14:05:33;8.43;;;5.90;;
13592;SDS011;6867;50.998;4.250;2023-06-10T14:08:00;7.30;;;6.00;;
13592;SDS011;6867;50.998;4.250;2023-06-10T14:10:28;9.98;;;5.93;;
13592;SDS011;6867;50.998;4.250;2023-06-10T14:12:54;8.15;;;6.03;;
13592;SDS011;6867;50.998;4.250;2023-06-10T14:15:21;7.35;;;6.30;;
13592;SDS011;6867;50.998;4.250;2023-06-10T14:17:49;9.35;;;6.30;;
13592;SDS011;6867;50.998;4.250;2023-06-10T14:20:16;7.40;;;5.95;;
13592;SDS011;6867;50.998;4.250;2023-06-10T14:22:42;8.93;;;6.80;;
13592;SDS011;6867;50.998;4.250;2023-06-10T14:25:09;6.43;;;5.82;;
13592;SDS011;6867;50.998;4.250;2023-06-10T14:27:36;6.40;;;5.80;;
13592;SDS011;6867;50.998;4.250;2023-06-10T14:30:03;8.82;;;6.32;;
13592;SDS011;6867;50.998;4.250;2023-06-10T14:32:30;6.30;;;5.70;;
13592;SDS011;6867;50.998;4.250;2023-06-10T14:34:58;6.88;;;6.18;;
13592;SDS011;6867;50.998;4.250;2023-06-10T14:37:25;8.88;;;6.47;;
13592;SDS011;6867;50.998;4.250;2023-06-10T14:39:51;12.82;;;6.10;;
13592;SDS011;6867;50.998;4.250;2023-06-10T14:42:18;9.60;;;6.43;;
13592;SDS011;6867;50.998;4.250;2023-06-10T14:44:45;7.35;;;6.63;;
13592;SDS011;6867;50.998;4.250;2023-06-10T14:47:12;6.82;;;6.18;;
13592;SDS011;6867;50.998;4.250;2023-06-10T14:49:38;7.03;;;6.03;;
13592;SDS011;6867;50.998;4.250;2023-06-10T14:52:08;7.05;;;6.25;;
13592;SDS011;6867;50.998;4.250;2023-06-10T14:54:35;7.65;;;6.93;;
13592;SDS011;6867;50.998;4.250;2023-06-10T14:57:02;6.55;;;6.03;;
13592;SDS011;6867;50.998;4.250;2023-06-10T14:59:29;7.20;;;6.47;;